METAR Data
IDs: Format: Raw Decoded Include TAF

Data at: 2018 UTC 17 Nov 2019

KLRY 172015Z AUTO 35009KT 10SM SCT025 OVC037 11/05 A2998 RMK AO2
KLRY 171955Z AUTO 35009KT 10SM BKN025 OVC039 11/05 A2998 RMK AO2
KLRY 171935Z AUTO 35007KT 10SM OVC025 11/05 A2999 RMK AO2
KLRY 171915Z AUTO 33007KT 10SM OVC025 11/05 A2999 RMK AO2
KLRY 171855Z AUTO 33010KT 10SM OVC025 12/05 A2999 RMK AO2
KLRY 171835Z AUTO 36010KT 10SM OVC025 12/05 A2999 RMK AO2
KLRY 171815Z AUTO 32012G18KT 10SM OVC025 12/05 A3000 RMK AO2
KLRY 171755Z AUTO 32013KT 10SM BKN025 12/05 A3000 RMK AO2
KLRY 171735Z AUTO 34011G16KT 10SM SCT025 SCT080 SCT100 12/04 A3000 RMK AO2
KLRY 171715Z AUTO 33009G15KT 10SM SCT080 BKN090 12/05 A3001 RMK AO2
KLRY 171655Z AUTO 32010G14KT 10SM SCT080 SCT100 11/03 A3001 RMK AO2
KLRY 171635Z AUTO 32011G16KT 10SM SCT065 BKN080 BKN120 10/03 A3001 RMK AO2
KLRY 171615Z AUTO 32008G14KT 10SM BKN080 BKN120 10/02 A3001 RMK AO2
KLRY 171555Z AUTO 30007KT 10SM SCT090 OVC120 10/02 A3001 RMK AO2
KLRY 171535Z AUTO 29006KT 10SM SCT090 OVC120 08/01 A3001 RMK AO2
KLRY 171515Z AUTO 26004KT 10SM SCT090 OVC110 08/00 A3001 RMK AO2
KLRY 171455Z AUTO 26005KT 10SM OVC110 08/00 A3002 RMK AO2
KLRY 171435Z AUTO 25004KT 10SM OVC090 07/00 A3002 RMK AO2
KLRY 171415Z AUTO 24004KT 10SM OVC100 07/00 A3002 RMK AO2
KLRY 171355Z AUTO 24004KT 10SM OVC110 07/00 A3001 RMK AO2
KLRY 171335Z AUTO 23004KT 10SM OVC110 07/00 A3001 RMK AO2
KLRY 171315Z AUTO 22004KT 10SM OVC110 07/00 A3001 RMK AO2
KLRY 171255Z AUTO 21004KT 10SM OVC110 07/00 A3001 RMK AO2
KLRY 171235Z AUTO 21005KT 10SM SCT095 BKN110 07/00 A3002 RMK AO2
KLRY 171215Z AUTO 23005KT 10SM SCT100 SCT120 07/M01 A3002 RMK AO2
KLRY 171155Z AUTO 22006KT 10SM SCT080 SCT090 BKN110 07/M01 A3002 RMK AO2
KLRY 171135Z AUTO 22005KT 10SM SCT080 OVC100 07/M01 A3002 RMK AO2
KLRY 171115Z AUTO 23004KT 10SM BKN080 OVC090 07/M01 A3002 RMK AO2
KLRY 171055Z AUTO 21005KT 10SM SCT080 OVC100 07/M01 A3003 RMK AO2
KLRY 171035Z AUTO 20003KT 10SM OVC100 07/M01 A3003 RMK AO2
KLRY 171015Z AUTO 20003KT 10SM OVC110 07/M01 A3004 RMK AO2
KLRY 170955Z AUTO 19004KT 10SM BKN120 07/M01 A3004 RMK AO2
KLRY 170935Z AUTO 20005KT 10SM CLR 07/M01 A3005 RMK AO2
KLRY 170915Z AUTO 20004KT 10SM CLR 07/M01 A3004 RMK AO2
KLRY 170855Z AUTO 18004KT 10SM CLR 07/M01 A3004 RMK AO2
KLRY 170835Z AUTO 19004KT 10SM CLR 07/M01 A3005 RMK AO2
KLRY 170815Z AUTO 18003KT 10SM CLR 07/M01 A3006 RMK AO2
KLRY 170755Z AUTO 18003KT 10SM CLR 07/M01 A3006 RMK AO2
KLRY 170735Z AUTO 18003KT 10SM CLR 07/M01 A3006 RMK AO2
KLRY 170715Z AUTO 17004KT 10SM CLR 07/M01 A3007 RMK AO2
KLRY 170655Z AUTO 19003KT 10SM CLR 07/M02 A3008 RMK AO2
KLRY 170635Z AUTO 18003KT 10SM CLR 07/M02 A3009 RMK AO2
KLRY 170615Z AUTO 19003KT 10SM CLR 07/M02 A3009 RMK AO2
KLRY 170555Z AUTO 00000KT 10SM CLR 06/M02 A3009 RMK AO2
KLRY 170535Z AUTO 00000KT 10SM CLR 07/M02 A3010 RMK AO2
KLRY 170515Z AUTO 00000KT 10SM CLR 08/M02 A3010 RMK AO2
KLRY 170455Z AUTO 19003KT 10SM CLR 08/M02 A3010 RMK AO2
KLRY 170435Z AUTO 19003KT 10SM CLR 08/M02 A3010 RMK AO2
KLRY 170415Z AUTO 18003KT 10SM CLR 08/M02 A3010 RMK AO2
KLRY 170355Z AUTO 17004KT 10SM CLR 08/M02 A3009 RMK AO2
KLRY 170335Z AUTO 16005KT 10SM CLR 08/M02 A3008 RMK AO2
KLRY 170315Z AUTO 15005KT 10SM CLR 08/M02 A3008 RMK AO2
KLRY 170255Z AUTO 16004KT 10SM CLR 08/M03 A3008 RMK AO2
KLRY 170235Z AUTO 15005KT 10SM CLR 08/M03 A3008 RMK AO2
KLRY 170215Z AUTO 15006KT 10SM CLR 08/M03 A3007 RMK AO2
KLRY 170155Z AUTO 14004KT 10SM CLR 07/M03 A3007 RMK AO2
KLRY 170135Z AUTO 15005KT 10SM CLR 08/M03 A3007 RMK AO2
KLRY 170115Z AUTO 14005KT 10SM CLR 08/M03 A3008 RMK AO2
KLRY 170055Z AUTO 14005KT 10SM CLR 08/M03 A3008 RMK AO2
KLRY 170035Z AUTO 14005KT 10SM CLR 08/M02 A3008 RMK AO2
KLRY 170015Z AUTO 14005KT 10SM CLR 09/M02 A3008 RMK AO2
KLRY 162355Z AUTO 14005KT 10SM CLR 09/M02 A3009 RMK AO2
KLRY 162335Z AUTO 14005KT 10SM CLR 09/M02 A3009 RMK AO2
KLRY 162315Z AUTO 13005KT 10SM CLR 10/M02 A3009 RMK AO2
KLRY 162255Z AUTO 14005KT 10SM CLR 12/M02 A3009 RMK AO2
KLRY 162235Z AUTO 14005KT 10SM CLR 12/M02 A3009 RMK AO2
KLRY 162215Z AUTO 15007KT 10SM CLR 12/M03 A3010 RMK AO2
KLRY 162155Z AUTO 15006KT 10SM CLR 13/M03 A3010 RMK AO2
KLRY 162135Z AUTO 17009KT 10SM CLR 14/M03 A3011 RMK AO2
KLRY 162115Z AUTO 17007KT 10SM CLR 15/M03 A3011 RMK AO2
KLRY 162055Z AUTO 16008KT 10SM CLR 15/M04 A3012 RMK AO2
KLRY 162035Z AUTO 16010G14KT 10SM CLR 15/M03 A3013 RMK AO2
KLRY 162015Z AUTO 20009KT 10SM CLR 15/M04 A3013 RMK AO2
KLRY 161955Z AUTO 19008KT 10SM CLR 15/M03 A3014 RMK AO2
KLRY 161935Z AUTO 17007KT 10SM CLR 15/M02 A3015 RMK AO2
KLRY 161915Z AUTO 18008KT 10SM CLR 14/M02 A3017 RMK AO2
KLRY 161855Z AUTO 17009KT 10SM CLR 13/M02 A3018 RMK AO2
KLRY 161835Z AUTO 19006KT 10SM CLR 14/M02 A3019 RMK AO2
KLRY 161815Z AUTO 19008KT 10SM CLR 13/M02 A3020 RMK AO2
KLRY 161755Z AUTO 20007KT 10SM CLR 12/M02 A3022 RMK AO2
KLRY 161735Z AUTO 19006KT 10SM CLR 12/M03 A3023 RMK AO2
KLRY 161715Z AUTO 16008KT 10SM CLR 11/M03 A3024 RMK AO2
KLRY 161655Z AUTO 14009KT 10SM CLR 10/M03 A3025 RMK AO2
KLRY 161635Z AUTO 15007KT 10SM CLR 09/M03 A3026 RMK AO2
KLRY 161615Z AUTO 16006KT 10SM CLR 08/M03 A3027 RMK AO2
KLRY 161555Z AUTO 16006KT 10SM CLR 08/M03 A3028 RMK AO2
KLRY 161535Z AUTO 18004KT 10SM CLR 07/M03 A3028 RMK AO2
KLRY 161515Z AUTO 17005KT 10SM CLR 05/M03 A3028 RMK AO2
KLRY 161455Z AUTO 16003KT 10SM CLR 03/M04 A3029 RMK AO2
KLRY 161435Z AUTO 14003KT 10SM CLR 03/M04 A3029 RMK AO2
KLRY 161415Z AUTO 14003KT 10SM CLR 02/M05 A3030 RMK AO2
KLRY 161355Z AUTO 13003KT 10SM CLR 00/M05 A3028 RMK AO2
KLRY 161335Z AUTO 00000KT 10SM CLR 00/M05 A3028 RMK AO2
KLRY 161315Z AUTO 00000KT 10SM CLR M01/M05 A3028 RMK AO2
KLRY 161255Z AUTO 11003KT 10SM CLR M01/M05 A3029 RMK AO2
KLRY 161235Z AUTO 00000KT 10SM CLR 00/M06 A3029 RMK AO2
KLRY 161215Z AUTO 00000KT 10SM CLR 00/M06 A3028 RMK AO2
KLRY 161155Z AUTO 14003KT 10SM CLR 00/M06 A3028 RMK AO2
KLRY 161135Z AUTO 00000KT 10SM CLR 00/M06 A3029 RMK AO2
KLRY 161115Z AUTO 13003KT 10SM CLR 00/M06 A3029 RMK AO2
KLRY 161055Z AUTO 00000KT 10SM CLR 01/M06 A3029 RMK AO2
KLRY 161035Z AUTO 12004KT 10SM CLR 01/M06 A3028 RMK AO2
KLRY 161015Z AUTO 13005KT 10SM CLR 01/M06 A3028 RMK AO2
KLRY 160955Z AUTO 12003KT 10SM CLR 00/M06 A3030 RMK AO2
KLRY 160935Z AUTO 14003KT 10SM CLR 01/M06 A3030 RMK AO2
KLRY 160915Z AUTO 13004KT 10SM CLR 00/M05 A3030 RMK AO2
KLRY 160855Z AUTO 13004KT 10SM CLR 00/M05 A3030 RMK AO2
KLRY 160835Z AUTO 12003KT 10SM CLR 00/M05 A3030 RMK AO2